GABS/BKO METAR and TAF weather

Enter ICAO airport designator
Station Type Date Time Source
GABS METAR 2021/02/27 03:00 UTC NOAA

GABS 270300Z 02005KT 8000 NSC 21/M02 Q1012 NOSIG


Station Type Date Time Source
GABS Decoded METAR 2021/02/27 03:00 UTC NOAA

Bamako / Senou, Mali (GABS) 12-32N 007-57W 381M
Feb 26, 2021 - 10:00 PM EST / 2021.02.27 0300 UTC
Wind: from the NNE (020 degrees) at 6 MPH (5 KT):0
Visibility: 4 mile(s):0
Temperature: 69 F (21 C)
Dew Point: 28 F (-2 C)
Relative Humidity: 21%
Pressure (altimeter): 29.88 in. Hg (1012 hPa)
ob: GABS 270300Z 02005KT 8000 NSC 21/M02 Q1012 NOSIG
cycle: 3

Station Type Date Time Source
GABS TAF 2021/02/26 18:52 UTC NOAA

TAF GABS 261710Z 2618/2724 03006KT CAVOK

Example: see airport list